Time;durP1;ratioP1;P1;durP2;ratioP2;P2;SDS_P1;SDS_P2;PMS_P1;PMS_P2;Temp;Humidity;BMP_temperature;BMP_pressure;BME280_temperature;BME280_humidity;BME280_pressure;Samples;Min_cycle;Max_cycle;Signal;HPM_P1;HPM_P2
2023/06/24 00:01:08;;;;;;;10.00;6.10;;;;;;;;;;5092036;28;20255;-36
2023/06/24 00:03:37;;;;;;;11.80;5.73;;;;;;;;;;5085828;28;20292;-36
2023/06/24 00:06:03;;;;;;;11.75;7.00;;;;;;;;;;5092468;28;20401;-38
2023/06/24 00:08:33;;;;;;;15.88;6.40;;;;;;;;;;5094626;28;20631;-36
2023/06/24 00:11:02;;;;;;;12.85;5.30;;;;;;;;;;5093266;28;20046;-36
2023/06/24 00:13:28;;;;;;;11.50;5.90;;;;;;;;;;5091392;28;20034;-36
2023/06/24 00:15:54;;;;;;;12.13;5.30;;;;;;;;;;5089958;28;20036;-36
2023/06/24 00:18:19;;;;;;;12.73;6.10;;;;;;;;;;5091556;28;20427;-36
2023/06/24 00:20:44;;;;;;;8.37;5.27;;;;;;;;;;5091789;28;20043;-35
2023/06/24 00:23:14;;;;;;;9.10;5.27;;;;;;;;;;5091923;28;20327;-35
2023/06/24 00:25:39;;;;;;;10.25;5.60;;;;;;;;;;5093079;28;20740;-36
2023/06/24 00:28:04;;;;;;;11.93;5.57;;;;;;;;;;5089576;28;20693;-36
2023/06/24 00:30:29;;;;;;;12.63;5.93;;;;;;;;;;5092762;28;20027;-35
2023/06/24 00:32:55;;;;;;;14.10;5.90;;;;;;;;;;5089740;28;20020;-36
2023/06/24 00:35:20;;;;;;;10.73;5.10;;;;;;;;;;5095732;28;20077;-35
2023/06/24 00:37:46;;;;;;;10.25;5.85;;;;;;;;;;5090952;28;20257;-36
2023/06/24 00:40:14;;;;;;;12.20;6.38;;;;;;;;;;5093168;28;20039;-35
2023/06/24 00:42:40;;;;;;;10.38;6.05;;;;;;;;;;5092085;28;20021;-36
2023/06/24 00:45:05;;;;;;;17.50;6.20;;;;;;;;;;5090957;28;20023;-36
2023/06/24 00:47:31;;;;;;;9.43;5.57;;;;;;;;;;5095768;28;20008;-35
2023/06/24 00:49:57;;;;;;;9.60;6.18;;;;;;;;;;5089611;28;20035;-36
2023/06/24 00:52:23;;;;;;;12.80;6.63;;;;;;;;;;5093278;28;20020;-35
2023/06/24 00:54:49;;;;;;;11.25;5.55;;;;;;;;;;5090493;28;20031;-36
2023/06/24 00:57:14;;;;;;;11.38;5.82;;;;;;;;;;5090138;28;20032;-36
2023/06/24 00:59:40;;;;;;;9.88;5.43;;;;;;;;;;5070478;28;20030;-36
2023/06/24 01:02:05;;;;;;;11.20;5.82;;;;;;;;;;5086185;28;20024;-36
2023/06/24 01:04:33;;;;;;;13.27;6.10;;;;;;;;;;5069775;28;20032;-35
2023/06/24 01:06:59;;;;;;;10.40;5.65;;;;;;;;;;5089106;28;20262;-36
2023/06/24 01:09:24;;;;;;;8.63;5.70;;;;;;;;;;5090841;28;20482;-35
2023/06/24 01:11:52;;;;;;;15.65;6.70;;;;;;;;;;5089468;28;20107;-36
2023/06/24 01:14:23;;;;;;;15.38;6.32;;;;;;;;;;5085493;28;20054;-36
2023/06/24 01:17:09;;;;;;;9.88;5.70;;;;;;;;;;5091524;28;20363;-35
2023/06/24 01:19:53;;;;;;;15.23;6.20;;;;;;;;;;5088860;28;20023;-35
2023/06/24 01:22:47;;;;;;;10.60;6.85;;;;;;;;;;5089621;28;20095;-35
2023/06/24 01:25:31;;;;;;;11.07;6.45;;;;;;;;;;5093322;28;20023;-35
2023/06/24 01:28:00;;;;;;;9.75;5.85;;;;;;;;;;5091691;28;20465;-36
2023/06/24 01:30:45;;;;;;;13.05;6.38;;;;;;;;;;5087726;28;20074;-36
2023/06/24 01:33:13;;;;;;;11.85;6.15;;;;;;;;;;5068709;28;20065;-36
2023/06/24 01:35:40;;;;;;;11.23;6.05;;;;;;;;;;5073323;28;20031;-36
2023/06/24 01:38:10;;;;;;;14.07;6.53;;;;;;;;;;5092237;28;20408;-36
2023/06/24 01:40:41;;;;;;;12.70;6.72;;;;;;;;;;5089045;28;20471;-35
2023/06/24 01:43:08;;;;;;;11.55;7.05;;;;;;;;;;5086671;28;20028;-36
2023/06/24 01:45:41;;;;;;;15.77;6.68;;;;;;;;;;5093234;28;20499;-35
2023/06/24 01:48:07;;;;;;;8.73;5.47;;;;;;;;;;5089341;28;20059;-36
2023/06/24 01:50:33;;;;;;;9.77;6.30;;;;;;;;;;5085979;28;20056;-35
2023/06/24 01:53:00;;;;;;;16.13;6.47;;;;;;;;;;5085437;28;20019;-35
2023/06/24 01:55:26;;;;;;;13.50;6.45;;;;;;;;;;5086585;28;20024;-35
2023/06/24 01:57:52;;;;;;;22.55;7.80;;;;;;;;;;5085644;28;20358;-35
2023/06/24 02:00:18;;;;;;;9.10;5.97;;;;;;;;;;5072736;28;20016;-36
2023/06/24 02:02:44;;;;;;;9.10;6.45;;;;;;;;;;5088718;28;20027;-35
2023/06/24 02:05:10;;;;;;;8.50;5.72;;;;;;;;;;5088606;28;20027;-35
2023/06/24 02:07:36;;;;;;;8.55;5.45;;;;;;;;;;5088922;28;20020;-36
2023/06/24 02:10:05;;;;;;;8.68;5.60;;;;;;;;;;5089147;28;20020;-36
2023/06/24 02:12:31;;;;;;;7.97;5.80;;;;;;;;;;5086218;28;20020;-35
2023/06/24 02:15:00;;;;;;;11.52;5.57;;;;;;;;;;5090068;28;20012;-35
2023/06/24 02:17:29;;;;;;;10.32;5.65;;;;;;;;;;5088704;28;20030;-36
2023/06/24 02:19:55;;;;;;;11.10;5.57;;;;;;;;;;5087722;28;20020;-35
2023/06/24 02:22:21;;;;;;;6.93;4.10;;;;;;;;;;5069739;28;20103;-35
2023/06/24 02:24:48;;;;;;;9.50;5.50;;;;;;;;;;5087701;28;20115;-35
2023/06/24 02:27:14;;;;;;;13.32;5.05;;;;;;;;;;5088699;28;20058;-35
2023/06/24 02:29:39;;;;;;;11.90;5.95;;;;;;;;;;5088899;28;20048;-35
2023/06/24 02:32:05;;;;;;;9.43;5.68;;;;;;;;;;5088905;28;20063;-36
2023/06/24 02:34:30;;;;;;;13.57;6.28;;;;;;;;;;5089123;28;20389;-36
2023/06/24 02:36:56;;;;;;;10.30;6.28;;;;;;;;;;5086694;28;20032;-36
2023/06/24 02:39:22;;;;;;;12.02;5.95;;;;;;;;;;5087095;28;20056;-36
2023/06/24 02:41:49;;;;;;;10.95;5.75;;;;;;;;;;5084511;28;20016;-35
2023/06/24 02:44:15;;;;;;;11.77;7.13;;;;;;;;;;5086814;28;20016;-36
2023/06/24 02:46:42;;;;;;;9.55;5.60;;;;;;;;;;5086812;28;20016;-36
2023/06/24 02:49:08;;;;;;;8.52;5.50;;;;;;;;;;5090849;28;20112;-36
2023/06/24 02:51:34;;;;;;;11.10;5.72;;;;;;;;;;5070271;28;20036;-35
2023/06/24 02:53:59;;;;;;;9.38;5.53;;;;;;;;;;5088300;28;20019;-36
2023/06/24 02:56:26;;;;;;;10.63;5.82;;;;;;;;;;5069910;28;20482;-36
2023/06/24 02:58:52;;;;;;;14.77;6.05;;;;;;;;;;5087527;28;20031;-35
2023/06/24 03:01:18;;;;;;;11.65;5.85;;;;;;;;;;5090284;28;20103;-35
2023/06/24 03:03:48;;;;;;;11.13;5.50;;;;;;;;;;5087489;28;22506;-36
2023/06/24 03:06:17;;;;;;;11.02;5.93;;;;;;;;;;5088684;28;20439;-35
2023/06/24 03:08:42;;;;;;;11.98;5.65;;;;;;;;;;5069565;28;20029;-35
2023/06/24 03:11:07;;;;;;;10.85;6.05;;;;;;;;;;5072691;28;20074;-35
2023/06/24 03:13:33;;;;;;;12.55;6.15;;;;;;;;;;5070601;28;20020;-35
2023/06/24 03:15:58;;;;;;;11.50;5.80;;;;;;;;;;5088450;28;20027;-35
2023/06/24 03:18:23;;;;;;;9.77;5.85;;;;;;;;;;5088838;28;20632;-36
2023/06/24 03:20:49;;;;;;;12.40;6.37;;;;;;;;;;5088715;28;20394;-36
2023/06/24 03:23:14;;;;;;;11.23;5.38;;;;;;;;;;5082931;28;20357;-36
2023/06/24 03:25:39;;;;;;;11.70;5.47;;;;;;;;;;5092154;28;20077;-36
2023/06/24 03:28:07;;;;;;;10.73;6.13;;;;;;;;;;5070957;28;20285;-36
2023/06/24 03:30:32;;;;;;;11.82;5.57;;;;;;;;;;5068397;28;20029;-35
2023/06/24 03:32:57;;;;;;;11.43;6.40;;;;;;;;;;5092781;28;20030;-36
2023/06/24 03:35:23;;;;;;;11.35;6.40;;;;;;;;;;5094508;28;20031;-36
2023/06/24 03:37:48;;;;;;;12.15;6.45;;;;;;;;;;5092531;28;20019;-35
2023/06/24 03:40:14;;;;;;;10.00;6.45;;;;;;;;;;5074667;28;20048;-35
2023/06/24 03:42:39;;;;;;;12.00;5.97;;;;;;;;;;5071421;28;20020;-35
2023/06/24 03:45:05;;;;;;;11.50;5.50;;;;;;;;;;5077465;28;20036;-35
2023/06/24 03:47:30;;;;;;;9.20;5.70;;;;;;;;;;5088161;28;20047;-36
2023/06/24 03:49:55;;;;;;;10.60;6.85;;;;;;;;;;5091112;28;20050;-36
2023/06/24 03:52:23;;;;;;;13.50;8.00;;;;;;;;;;5091947;28;20051;-35
2023/06/24 03:54:50;;;;;;;8.95;5.65;;;;;;;;;;5090293;28;20277;-37
2023/06/24 03:57:16;;;;;;;14.18;6.32;;;;;;;;;;5089607;28;20035;-36
2023/06/24 03:59:41;;;;;;;13.65;5.95;;;;;;;;;;5089739;28;20390;-36
2023/06/24 04:02:09;;;;;;;11.15;6.18;;;;;;;;;;5090566;28;20032;-35
2023/06/24 04:04:35;;;;;;;8.75;5.70;;;;;;;;;;5089755;28;20043;-35
2023/06/24 04:07:00;;;;;;;10.88;5.97;;;;;;;;;;5089712;28;20471;-36
2023/06/24 04:09:26;;;;;;;15.63;6.20;;;;;;;;;;5089264;28;20028;-35
2023/06/24 04:11:51;;;;;;;18.23;7.97;;;;;;;;;;5088269;28;20446;-35
2023/06/24 04:14:16;;;;;;;12.20;6.05;;;;;;;;;;5089074;28;20282;-35
2023/06/24 04:16:42;;;;;;;13.45;7.30;;;;;;;;;;5090333;28;20095;-35
2023/06/24 04:19:07;;;;;;;11.25;6.68;;;;;;;;;;5075107;28;20101;-36
2023/06/24 04:21:33;;;;;;;13.93;6.72;;;;;;;;;;5073785;28;20222;-36
2023/06/24 04:23:58;;;;;;;11.63;6.70;;;;;;;;;;5085975;28;20031;-35
2023/06/24 04:26:26;;;;;;;14.55;6.47;;;;;;;;;;5075848;28;20107;-36
2023/06/24 04:28:51;;;;;;;14.38;6.40;;;;;;;;;;5090637;28;20027;-36
2023/06/24 04:31:16;;;;;;;10.02;5.70;;;;;;;;;;5091309;28;20081;-36
2023/06/24 04:33:42;;;;;;;14.27;6.63;;;;;;;;;;5090531;28;20085;-36
2023/06/24 04:36:07;;;;;;;14.25;6.03;;;;;;;;;;5089339;28;20039;-36
2023/06/24 04:38:32;;;;;;;17.17;6.63;;;;;;;;;;5090860;28;20056;-35
2023/06/24 04:40:59;;;;;;;11.88;6.45;;;;;;;;;;5090160;28;20308;-35
2023/06/24 04:43:24;;;;;;;21.00;6.45;;;;;;;;;;5090437;28;20035;-35
2023/06/24 04:45:49;;;;;;;12.35;6.65;;;;;;;;;;5091287;28;20020;-35
2023/06/24 04:48:15;;;;;;;13.03;6.47;;;;;;;;;;5073854;28;20036;-35
2023/06/24 04:50:42;;;;;;;15.40;6.70;;;;;;;;;;5090560;28;20292;-35
2023/06/24 04:53:10;;;;;;;14.98;7.10;;;;;;;;;;5090269;28;20111;-36
2023/06/24 04:55:35;;;;;;;13.38;6.38;;;;;;;;;;5087273;28;20067;-35
2023/06/24 04:58:01;;;;;;;13.27;6.30;;;;;;;;;;5071613;28;20447;-36
2023/06/24 05:00:26;;;;;;;11.80;5.63;;;;;;;;;;5089397;28;20449;-35
2023/06/24 05:02:51;;;;;;;16.33;6.83;;;;;;;;;;5090431;28;20258;-35
2023/06/24 05:05:17;;;;;;;12.45;6.78;;;;;;;;;;5090487;28;20258;-36
2023/06/24 05:07:42;;;;;;;18.73;7.25;;;;;;;;;;5089231;28;20019;-35
2023/06/24 05:10:08;;;;;;;10.90;6.90;;;;;;;;;;5070858;28;20035;-35
2023/06/24 05:12:33;;;;;;;13.60;6.15;;;;;;;;;;5086896;28;20371;-35
2023/06/24 05:14:58;;;;;;;10.43;6.10;;;;;;;;;;5088300;28;20981;-35
2023/06/24 05:17:23;;;;;;;14.20;6.38;;;;;;;;;;5073456;28;20345;-36
2023/06/24 05:19:52;;;;;;;15.93;6.87;;;;;;;;;;5085799;28;20102;-35
2023/06/24 05:22:17;;;;;;;16.90;10.27;;;;;;;;;;5073193;28;20270;-36
2023/06/24 05:24:43;;;;;;;18.60;7.28;;;;;;;;;;5087598;28;20024;-35
2023/06/24 05:27:08;;;;;;;13.77;5.68;;;;;;;;;;5091476;28;20583;-35
2023/06/24 05:29:34;;;;;;;15.55;6.63;;;;;;;;;;5068759;28;20056;-36
2023/06/24 05:31:59;;;;;;;13.32;7.28;;;;;;;;;;5070010;28;20527;-36
2023/06/24 05:34:25;;;;;;;14.55;6.70;;;;;;;;;;5085882;28;20424;-36
2023/06/24 05:36:50;;;;;;;12.93;7.75;;;;;;;;;;5074913;28;20016;-36
2023/06/24 05:39:18;;;;;;;13.50;6.97;;;;;;;;;;5089574;28;20406;-35
2023/06/24 05:41:43;;;;;;;15.07;7.45;;;;;;;;;;5086135;28;20462;-36
2023/06/24 05:44:11;;;;;;;15.90;7.77;;;;;;;;;;5084154;28;20038;-36
2023/06/24 05:46:36;;;;;;;13.65;7.43;;;;;;;;;;5085808;28;20271;-35
2023/06/24 05:49:02;;;;;;;12.30;8.40;;;;;;;;;;5088059;28;20048;-35
2023/06/24 05:51:27;;;;;;;16.88;7.30;;;;;;;;;;5086225;28;20086;-36
2023/06/24 05:53:52;;;;;;;15.10;6.20;;;;;;;;;;5087169;28;20024;-35
2023/06/24 05:56:18;;;;;;;10.05;4.20;;;;;;;;;;5090957;28;20024;-35
2023/06/24 05:58:43;;;;;;;13.65;7.18;;;;;;;;;;5087332;28;20143;-38
2023/06/24 06:01:12;;;;;;;13.10;6.87;;;;;;;;;;5088987;28;20032;-36
2023/06/24 06:03:37;;;;;;;18.33;8.15;;;;;;;;;;5084738;28;20274;-35
2023/06/24 06:06:03;;;;;;;12.98;6.30;;;;;;;;;;5071537;28;20028;-35
2023/06/24 06:08:28;;;;;;;16.90;6.85;;;;;;;;;;5087284;28;20931;-36
2023/06/24 06:10:53;;;;;;;10.90;6.38;;;;;;;;;;5091785;28;20034;-36
2023/06/24 06:13:18;;;;;;;10.37;6.80;;;;;;;;;;5087719;28;20119;-36
2023/06/24 06:15:44;;;;;;;11.60;5.97;;;;;;;;;;5089375;28;20254;-36
2023/06/24 06:18:09;;;;;;;16.03;6.67;;;;;;;;;;5086526;28;20306;-36
2023/06/24 06:20:34;;;;;;;15.52;6.22;;;;;;;;;;5090150;28;20786;-36
2023/06/24 06:23:00;;;;;;;14.27;6.53;;;;;;;;;;5090722;28;20095;-36
2023/06/24 06:25:25;;;;;;;13.23;6.10;;;;;;;;;;5085624;28;20274;-36
2023/06/24 06:27:50;;;;;;;12.95;6.55;;;;;;;;;;5087505;28;20270;-35
2023/06/24 06:30:15;;;;;;;12.17;6.03;;;;;;;;;;5090006;28;20027;-36
2023/06/24 06:32:41;;;;;;;11.07;6.60;;;;;;;;;;5084686;28;20351;-36
2023/06/24 06:35:06;;;;;;;10.73;6.30;;;;;;;;;;5090442;28;20262;-36
2023/06/24 06:37:32;;;;;;;11.45;6.15;;;;;;;;;;5081588;28;20353;-36
2023/06/24 06:39:57;;;;;;;10.53;5.67;;;;;;;;;;5090816;28;20032;-33
2023/06/24 06:42:22;;;;;;;9.55;5.68;;;;;;;;;;5087589;28;20265;-34
2023/06/24 06:44:48;;;;;;;13.47;6.73;;;;;;;;;;5089114;28;20051;-34
2023/06/24 06:47:13;;;;;;;18.07;7.20;;;;;;;;;;5082879;28;20258;-36
2023/06/24 06:49:38;;;;;;;12.52;6.28;;;;;;;;;;5085859;28;20270;-34
2023/06/24 06:52:04;;;;;;;12.23;6.27;;;;;;;;;;5086331;28;20055;-34
2023/06/24 06:54:29;;;;;;;13.82;7.13;;;;;;;;;;5083382;28;20286;-34
2023/06/24 06:56:55;;;;;;;10.03;5.90;;;;;;;;;;5088035;28;20393;-34
2023/06/24 06:59:20;;;;;;;13.52;6.97;;;;;;;;;;5092525;28;20268;-35
2023/06/24 07:01:46;;;;;;;10.80;6.25;;;;;;;;;;5090029;28;20054;-34
2023/06/24 07:04:11;;;;;;;11.25;6.70;;;;;;;;;;5086968;28;20051;-35
2023/06/24 07:06:36;;;;;;;12.85;6.53;;;;;;;;;;5091252;28;20016;-35
2023/06/24 07:09:02;;;;;;;13.90;6.60;;;;;;;;;;5086592;28;20036;-35
2023/06/24 07:11:27;;;;;;;13.07;6.53;;;;;;;;;;5091012;28;20056;-34
2023/06/24 07:13:52;;;;;;;12.80;5.83;;;;;;;;;;5087757;28;20119;-35
2023/06/24 07:16:19;;;;;;;10.85;6.05;;;;;;;;;;5069118;28;20075;-34
2023/06/24 07:18:45;;;;;;;11.48;6.55;;;;;;;;;;5071002;28;20479;-34
2023/06/24 07:21:10;;;;;;;10.87;5.63;;;;;;;;;;5068883;28;20509;-36
2023/06/24 07:23:35;;;;;;;14.10;6.27;;;;;;;;;;5066323;28;20270;-35
2023/06/24 07:26:00;;;;;;;10.57;6.67;;;;;;;;;;5067381;28;20271;-35
2023/06/24 07:28:26;;;;;;;13.20;6.57;;;;;;;;;;5065754;28;20032;-36
2023/06/24 07:30:51;;;;;;;11.80;5.47;;;;;;;;;;5067188;28;20056;-36
2023/06/24 07:33:16;;;;;;;8.87;6.00;;;;;;;;;;5068881;28;20279;-34
2023/06/24 07:35:42;;;;;;;6.23;3.77;;;;;;;;;;5069466;28;20067;-35
2023/06/24 07:38:07;;;;;;;14.48;6.60;;;;;;;;;;5068758;28;20273;-35
2023/06/24 07:40:32;;;;;;;14.43;6.30;;;;;;;;;;5071638;28;20025;-35
2023/06/24 07:42:57;;;;;;;13.40;6.17;;;;;;;;;;5068327;28;20110;-35
2023/06/24 07:45:23;;;;;;;9.80;5.83;;;;;;;;;;5068187;28;20669;-34
2023/06/24 07:47:48;;;;;;;17.38;6.70;;;;;;;;;;5061989;28;20270;-35
2023/06/24 07:50:14;;;;;;;14.07;6.07;;;;;;;;;;5071728;28;20025;-35
2023/06/24 07:52:39;;;;;;;12.03;6.33;;;;;;;;;;5061477;28;20653;-35
2023/06/24 07:55:04;;;;;;;14.50;6.53;;;;;;;;;;5070888;28;20282;-34
2023/06/24 07:57:30;;;;;;;10.50;5.53;;;;;;;;;;5068434;28;20267;-35
2023/06/24 07:59:55;;;;;;;16.45;7.60;;;;;;;;;;5062298;28;20032;-35
2023/06/24 08:02:20;;;;;;;12.13;6.80;;;;;;;;;;5061506;28;20409;-35
2023/06/24 08:04:46;;;;;;;9.80;4.77;;;;;;;;;;5065314;28;20350;-35
2023/06/24 08:07:11;;;;;;;10.50;5.80;;;;;;;;;;5067169;28;20275;-35
2023/06/24 08:09:36;;;;;;;8.47;5.03;;;;;;;;;;5066825;28;20282;-35
2023/06/24 08:12:02;;;;;;;14.20;5.50;;;;;;;;;;5063524;28;20050;-35
2023/06/24 08:14:27;;;;;;;11.73;5.63;;;;;;;;;;5071581;28;20289;-35
2023/06/24 08:16:52;;;;;;;7.70;4.43;;;;;;;;;;5068479;28;20048;-35
2023/06/24 08:19:17;;;;;;;10.37;5.37;;;;;;;;;;5071072;28;20270;-34
2023/06/24 08:21:43;;;;;;;15.20;7.40;;;;;;;;;;5067508;28;20279;-35
2023/06/24 08:24:08;;;;;;;9.37;5.00;;;;;;;;;;5073198;28;20270;-34
2023/06/24 08:26:33;;;;;;;10.83;5.07;;;;;;;;;;5072807;28;20324;-35
2023/06/24 08:28:59;;;;;;;14.10;5.60;;;;;;;;;;5073143;28;20447;-35
2023/06/24 08:31:25;;;;;;;10.63;5.80;;;;;;;;;;5073293;28;20317;-35
2023/06/24 08:33:54;;;;;;;13.43;5.50;;;;;;;;;;5072054;28;20028;-35
2023/06/24 08:36:21;;;;;;;10.15;5.18;;;;;;;;;;5070867;28;20104;-35
2023/06/24 08:38:46;;;;;;;11.30;5.20;;;;;;;;;;5071772;28;20528;-35
2023/06/24 08:41:11;;;;;;;9.13;5.20;;;;;;;;;;5070707;28;20120;-35
2023/06/24 08:43:38;;;;;;;10.37;5.40;;;;;;;;;;5073742;28;20275;-36
2023/06/24 08:46:04;;;;;;;12.05;5.20;;;;;;;;;;5074103;28;20263;-35
2023/06/24 08:48:30;;;;;;;12.70;4.90;;;;;;;;;;5075330;28;20112;-35
2023/06/24 08:50:56;;;;;;;8.90;4.78;;;;;;;;;;5067381;28;20297;-35
2023/06/24 08:53:21;;;;;;;9.73;5.63;;;;;;;;;;5064539;28;20031;-35
2023/06/24 08:55:49;;;;;;;10.17;4.43;;;;;;;;;;5070107;28;20033;-35
2023/06/24 08:58:15;;;;;;;10.82;5.30;;;;;;;;;;5069047;28;20474;-35
2023/06/24 09:00:41;;;;;;;8.18;4.13;;;;;;;;;;5065444;28;20074;-35
2023/06/24 09:03:06;;;;;;;9.70;5.15;;;;;;;;;;5066584;28;20111;-35
2023/06/24 09:05:32;;;;;;;9.03;4.47;;;;;;;;;;5068508;28;20104;-35
2023/06/24 09:07:57;;;;;;;8.38;4.32;;;;;;;;;;5067092;28;20050;-35
2023/06/24 09:10:32;;;;;;;8.93;5.50;;;;;;;;;;5067539;28;20036;-35
2023/06/24 09:12:58;;;;;;;12.02;4.85;;;;;;;;;;5067910;28;20031;-35
2023/06/24 09:15:23;;;;;;;9.70;4.85;;;;;;;;;;5070576;28;20020;-35
2023/06/24 09:17:49;;;;;;;7.05;4.32;;;;;;;;;;5068710;28;20020;-35
2023/06/24 09:20:14;;;;;;;9.03;4.40;;;;;;;;;;5067167;28;20028;-36
2023/06/24 09:22:42;;;;;;;12.10;3.97;;;;;;;;;;5071591;28;20038;-35
2023/06/24 09:25:07;;;;;;;9.13;4.38;;;;;;;;;;5072521;28;20379;-35
2023/06/24 09:27:34;;;;;;;6.80;4.50;;;;;;;;;;5070482;28;20025;-35
2023/06/24 09:29:59;;;;;;;9.63;4.72;;;;;;;;;;5071064;28;20303;-35
2023/06/24 09:32:31;;;;;;;7.40;4.68;;;;;;;;;;5067976;28;20025;-35
2023/06/24 09:34:56;;;;;;;;;;;;;;;;;;5064232;28;20024;-35
2023/06/24 09:37:26;;;;;;;9.50;4.22;;;;;;;;;;5070556;28;19915;-35
2023/06/24 09:39:53;;;;;;;9.93;5.00;;;;;;;;;;5067228;28;20035;-35
2023/06/24 09:42:20;;;;;;;6.70;4.05;;;;;;;;;;5065818;28;20029;-35
2023/06/24 09:44:52;;;;;;;5.13;3.80;;;;;;;;;;5067464;28;20025;-35
2023/06/24 09:47:17;;;;;;;6.72;4.32;;;;;;;;;;5064849;28;20055;-41
2023/06/24 09:49:42;;;;;;;9.87;4.87;;;;;;;;;;5064793;28;20061;-35
2023/06/24 09:52:08;;;;;;;7.25;4.45;;;;;;;;;;5069373;28;20029;-35
2023/06/24 09:54:34;;;;;;;8.48;3.70;;;;;;;;;;5070246;28;20028;-35
2023/06/24 09:57:01;;;;;;;11.02;4.80;;;;;;;;;;5070412;28;20025;-35
2023/06/24 09:59:27;;;;;;;12.10;4.32;;;;;;;;;;5070910;28;20024;-35
2023/06/24 10:01:53;;;;;;;9.13;4.10;;;;;;;;;;5069620;28;20024;-35
2023/06/24 10:04:20;;;;;;;7.90;3.83;;;;;;;;;;5070393;28;20024;-35
2023/06/24 10:06:45;;;;;;;6.43;4.82;;;;;;;;;;5067964;28;20024;-35
2023/06/24 10:09:13;;;;;;;6.63;3.67;;;;;;;;;;5069699;28;20040;-35
2023/06/24 10:11:38;;;;;;;40.20;5.97;;;;;;;;;;5071026;28;20024;-35
2023/06/24 10:14:04;;;;;;;11.63;4.30;;;;;;;;;;5077172;28;20505;-35
2023/06/24 10:16:29;;;;;;;7.63;4.27;;;;;;;;;;5071294;28;20025;-35
2023/06/24 10:19:00;;;;;;;8.77;4.07;;;;;;;;;;5072144;28;20261;-35
2023/06/24 10:21:43;;;;;;;7.05;4.60;;;;;;;;;;5074112;28;20029;-35
2023/06/24 10:24:10;;;;;;;7.78;4.88;;;;;;;;;;5064483;28;20025;-35
2023/06/24 10:26:36;;;;;;;6.65;3.90;;;;;;;;;;5070590;28;20032;-35
2023/06/24 10:29:07;;;;;;;7.65;4.25;;;;;;;;;;5064466;28;20078;-35
2023/06/24 10:31:42;;;;;;;8.77;4.40;;;;;;;;;;5070290;28;20024;-35
2023/06/24 10:34:22;;;;;;;3.65;2.40;;;;;;;;;;5075157;28;20483;-35
2023/06/24 10:36:55;;;;;;;7.70;4.03;;;;;;;;;;5069501;28;20016;-35
2023/06/24 10:39:43;;;;;;;7.28;4.13;;;;;;;;;;5066843;28;20017;-35
2023/06/24 10:42:27;;;;;;;6.10;3.60;;;;;;;;;;5056963;28;20388;-35
2023/06/24 10:44:53;;;;;;;7.50;4.13;;;;;;;;;;5068364;28;20024;-35
2023/06/24 10:47:19;;;;;;;10.00;4.80;;;;;;;;;;5068280;28;20020;-35
2023/06/24 10:49:45;;;;;;;6.03;3.72;;;;;;;;;;5071577;28;20658;-36
2023/06/24 10:52:11;;;;;;;7.05;4.25;;;;;;;;;;5070665;28;20029;-35
2023/06/24 10:54:39;;;;;;;7.00;4.40;;;;;;;;;;5072880;28;20058;-36
2023/06/24 10:57:05;;;;;;;10.10;4.50;;;;;;;;;;5065454;28;20375;-35
2023/06/24 10:59:41;;;;;;;8.20;4.05;;;;;;;;;;5059343;28;20032;-35
2023/06/24 11:02:07;;;;;;;9.00;3.92;;;;;;;;;;5061592;28;20012;-35
2023/06/24 11:04:32;;;;;;;8.18;4.03;;;;;;;;;;5065041;28;20031;-35
2023/06/24 11:06:58;;;;;;;5.90;4.03;;;;;;;;;;5069145;28;20036;-36
2023/06/24 11:09:23;;;;;;;8.68;4.25;;;;;;;;;;5059914;28;20025;-35
2023/06/24 11:11:49;;;;;;;8.30;4.67;;;;;;;;;;5060946;28;20049;-36
2023/06/24 11:14:15;;;;;;;12.93;3.53;;;;;;;;;;5060703;28;20716;-36
2023/06/24 11:16:40;;;;;;;6.55;4.25;;;;;;;;;;5065854;28;20052;-36
2023/06/24 11:19:06;;;;;;;6.80;4.27;;;;;;;;;;5066839;28;20057;-35
2023/06/24 11:21:31;;;;;;;6.75;4.00;;;;;;;;;;5067476;28;20281;-35
2023/06/24 11:24:00;;;;;;;5.82;3.55;;;;;;;;;;5069856;28;20032;-36
2023/06/24 11:26:25;;;;;;;8.00;3.60;;;;;;;;;;5067486;28;20044;-36
2023/06/24 11:28:50;;;;;;;5.83;3.43;;;;;;;;;;5070747;28;20029;-36
2023/06/24 11:31:15;;;;;;;6.53;3.70;;;;;;;;;;5067445;28;20321;-35
2023/06/24 11:33:41;;;;;;;8.87;3.93;;;;;;;;;;5064204;28;20036;-36
2023/06/24 11:36:10;;;;;;;7.90;3.87;;;;;;;;;;5065091;28;20341;-36
2023/06/24 11:38:36;;;;;;;6.10;4.10;;;;;;;;;;5064666;28;20028;-36
2023/06/24 11:41:01;;;;;;;5.93;3.15;;;;;;;;;;5065363;28;20024;-35
2023/06/24 11:43:27;;;;;;;7.03;3.70;;;;;;;;;;5064791;28;20111;-36
2023/06/24 11:45:52;;;;;;;8.77;4.47;;;;;;;;;;5066057;28;20298;-37
2023/06/24 11:48:19;;;;;;;4.93;3.23;;;;;;;;;;5066582;28;20025;-36
2023/06/24 11:50:52;;;;;;;5.50;3.40;;;;;;;;;;5068405;28;20035;-37
2023/06/24 11:53:17;;;;;;;6.15;3.40;;;;;;;;;;5065262;28;20058;-36
2023/06/24 11:55:43;;;;;;;6.87;3.10;;;;;;;;;;5072536;28;20032;-36
2023/06/24 11:58:09;;;;;;;13.67;5.60;;;;;;;;;;5067088;28;20259;-36
2023/06/24 12:00:45;;;;;;;11.07;4.05;;;;;;;;;;5070459;28;20108;-36
2023/06/24 12:03:10;;;;;;;6.50;3.42;;;;;;;;;;5065387;28;20398;-36
2023/06/24 12:05:36;;;;;;;4.72;2.92;;;;;;;;;;5069214;28;20024;-36
2023/06/24 12:08:06;;;;;;;5.68;3.33;;;;;;;;;;5066683;28;20078;-36
2023/06/24 12:10:33;;;;;;;5.65;3.70;;;;;;;;;;5063419;28;20032;-36
2023/06/24 12:12:58;;;;;;;8.55;3.20;;;;;;;;;;5068093;28;20020;-36
2023/06/24 12:15:24;;;;;;;5.40;3.10;;;;;;;;;;5066115;28;20023;-36
2023/06/24 12:17:50;;;;;;;6.10;3.45;;;;;;;;;;5067481;28;20100;-36
2023/06/24 12:20:17;;;;;;;6.53;2.70;;;;;;;;;;5068210;28;20151;-36
2023/06/24 12:22:42;;;;;;;9.35;2.53;;;;;;;;;;5062935;28;20290;-36
2023/06/24 12:25:08;;;;;;;5.63;2.85;;;;;;;;;;5067863;28;20043;-36
2023/06/24 12:27:33;;;;;;;4.00;2.10;;;;;;;;;;5066539;28;20024;-36
2023/06/24 12:29:59;;;;;;;5.05;2.80;;;;;;;;;;5068539;28;20028;-36
2023/06/24 12:32:24;;;;;;;8.30;2.35;;;;;;;;;;5065980;28;20025;-36
2023/06/24 12:34:49;;;;;;;7.07;2.50;;;;;;;;;;5069215;28;20044;-36
2023/06/24 12:37:14;;;;;;;5.17;2.40;;;;;;;;;;5067427;28;20157;-36
2023/06/24 12:39:40;;;;;;;5.33;2.37;;;;;;;;;;5066311;28;20063;-35
2023/06/24 12:42:05;;;;;;;3.43;1.80;;;;;;;;;;5063688;28;20032;-36
2023/06/24 12:44:31;;;;;;;8.80;2.85;;;;;;;;;;5069778;28;20055;-36
2023/06/24 12:46:56;;;;;;;5.55;2.30;;;;;;;;;;5066982;28;20040;-36
2023/06/24 12:49:21;;;;;;;4.83;2.67;;;;;;;;;;5066688;28;20034;-34
2023/06/24 12:51:47;;;;;;;4.27;2.40;;;;;;;;;;5067963;28;20173;-34
2023/06/24 12:54:12;;;;;;;4.20;2.13;;;;;;;;;;5070981;28;20032;-38
2023/06/24 12:56:37;;;;;;;4.70;2.70;;;;;;;;;;5069993;28;20494;-35
2023/06/24 12:59:02;;;;;;;4.90;2.30;;;;;;;;;;5070166;28;20271;-35
2023/06/24 13:01:28;;;;;;;5.17;1.80;;;;;;;;;;5069217;28;20275;-36
2023/06/24 13:03:53;;;;;;;4.43;2.85;;;;;;;;;;5069300;28;20021;-36
2023/06/24 13:06:18;;;;;;;9.50;5.27;;;;;;;;;;5070553;28;20035;-35
2023/06/24 13:08:44;;;;;;;5.20;2.27;;;;;;;;;;5067767;28;20285;-36
2023/06/24 13:11:09;;;;;;;5.32;2.47;;;;;;;;;;5070283;28;20281;-36
2023/06/24 13:13:35;;;;;;;5.78;2.45;;;;;;;;;;5067909;28;20024;-35
2023/06/24 13:16:01;;;;;;;4.47;2.15;;;;;;;;;;5071152;28;20023;-36
2023/06/24 13:18:26;;;;;;;4.10;2.83;;;;;;;;;;5071105;28;20218;-36
2023/06/24 13:20:51;;;;;;;5.22;3.30;;;;;;;;;;5075645;28;20535;-36
2023/06/24 13:23:16;;;;;;;4.53;2.37;;;;;;;;;;5068776;28;20044;-36
2023/06/24 13:25:42;;;;;;;4.30;2.40;;;;;;;;;;5068597;28;20027;-36
2023/06/24 13:28:07;;;;;;;3.70;2.30;;;;;;;;;;5067708;28;20025;-35
2023/06/24 13:30:32;;;;;;;3.20;2.27;;;;;;;;;;5069016;28;20342;-35
2023/06/24 13:32:58;;;;;;;7.05;3.90;;;;;;;;;;5068534;28;20479;-35
2023/06/24 13:35:23;;;;;;;6.27;2.50;;;;;;;;;;5070146;28;20456;-35
2023/06/24 13:37:48;;;;;;;4.10;2.83;;;;;;;;;;5066267;28;20794;-35
2023/06/24 13:40:13;;;;;;;4.90;2.87;;;;;;;;;;5067736;28;20365;-35
2023/06/24 13:42:39;;;;;;;6.20;2.90;;;;;;;;;;5065444;28;20584;-35
2023/06/24 13:45:04;;;;;;;5.30;2.60;;;;;;;;;;5074435;28;20293;-35
2023/06/24 13:47:29;;;;;;;7.63;2.70;;;;;;;;;;5067562;28;20027;-35
2023/06/24 13:49:55;;;;;;;6.67;2.73;;;;;;;;;;5067193;28;20437;-35
2023/06/24 13:52:21;;;;;;;7.47;3.47;;;;;;;;;;5068012;28;20043;-35
2023/06/24 13:54:46;;;;;;;5.13;3.00;;;;;;;;;;5070019;28;20464;-35
2023/06/24 13:57:11;;;;;;;6.40;2.80;;;;;;;;;;5066401;28;20024;-35
2023/06/24 13:59:37;;;;;;;5.03;3.33;;;;;;;;;;5068489;28;20023;-36
2023/06/24 14:02:02;;;;;;;4.60;3.00;;;;;;;;;;5068302;28;20705;-35
2023/06/24 14:04:27;;;;;;;5.53;2.67;;;;;;;;;;5065727;28;20764;-35
2023/06/24 14:06:53;;;;;;;5.50;2.57;;;;;;;;;;5064151;28;20395;-35
2023/06/24 14:09:18;;;;;;;5.53;2.78;;;;;;;;;;5066229;28;20036;-35
2023/06/24 14:11:44;;;;;;;6.50;2.97;;;;;;;;;;5065443;28;20545;-35
2023/06/24 14:14:09;;;;;;;6.37;2.70;;;;;;;;;;5068712;28;20402;-36
2023/06/24 14:16:34;;;;;;;6.83;2.93;;;;;;;;;;5070537;28;20789;-35
2023/06/24 14:18:59;;;;;;;5.83;2.77;;;;;;;;;;5067990;28;20027;-35
2023/06/24 14:21:25;;;;;;;6.70;3.13;;;;;;;;;;5069119;28;20154;-35
2023/06/24 14:23:50;;;;;;;3.87;2.40;;;;;;;;;;5068466;28;20263;-35
2023/06/24 14:26:15;;;;;;;6.65;3.22;;;;;;;;;;5062480;28;20051;-35
2023/06/24 14:28:40;;;;;;;5.57;2.60;;;;;;;;;;5067864;28;20031;-35
2023/06/24 14:31:06;;;;;;;7.10;3.00;;;;;;;;;;5068515;28;20096;-35